sensor_id;sensor_type;location;lat;lon;timestamp;temperature;humidity
39919;DHT22;25589;51.552;13.424;2023-03-12T00:01:24;1.50;99.90
39919;DHT22;25589;51.552;13.424;2023-03-12T00:03:50;1.90;99.90
39919;DHT22;25589;51.552;13.424;2023-03-12T00:06:17;0.90;99.90
39919;DHT22;25589;51.552;13.424;2023-03-12T00:08:43;1.10;99.90
39919;DHT22;25589;51.552;13.424;2023-03-12T00:11:14;1.60;99.90
39919;DHT22;25589;51.552;13.424;2023-03-12T00:13:40;2.00;99.90
39919;DHT22;25589;51.552;13.424;2023-03-12T00:16:11;2.10;99.90
39919;DHT22;25589;51.552;13.424;2023-03-12T00:18:37;1.50;99.90
39919;DHT22;25589;51.552;13.424;2023-03-12T00:21:04;2.10;99.90
39919;DHT22;25589;51.552;13.424;2023-03-12T00:23:30;1.50;99.90
39919;DHT22;25589;51.552;13.424;2023-03-12T00:26:10;0.40;99.90
39919;DHT22;25589;51.552;13.424;2023-03-12T00:28:36;1.40;99.90
39919;DHT22;25589;51.552;13.424;2023-03-12T00:31:12;0.20;99.90
39919;DHT22;25589;51.552;13.424;2023-03-12T00:33:38;1.40;99.90
39919;DHT22;25589;51.552;13.424;2023-03-12T00:38:30;1.50;99.90
39919;DHT22;25589;51.552;13.424;2023-03-12T00:40:55;2.70;99.90
39919;DHT22;25589;51.552;13.424;2023-03-12T00:43:21;0.50;99.90
39919;DHT22;25589;51.552;13.424;2023-03-12T00:45:47;1.50;99.90
39919;DHT22;25589;51.552;13.424;2023-03-12T00:48:12;1.20;99.90
39919;DHT22;25589;51.552;13.424;2023-03-12T00:50:38;1.50;99.90
39919;DHT22;25589;51.552;13.424;2023-03-12T00:53:03;0.40;99.90
39919;DHT22;25589;51.552;13.424;2023-03-12T00:55:29;1.60;99.90
39919;DHT22;25589;51.552;13.424;2023-03-12T00:57:54;1.30;99.90
39919;DHT22;25589;51.552;13.424;2023-03-12T01:00:20;1.60;99.90
39919;DHT22;25589;51.552;13.424;2023-03-12T01:02:46;0.50;99.90
39919;DHT22;25589;51.552;13.424;2023-03-12T01:05:13;2.60;99.90
39919;DHT22;25589;51.552;13.424;2023-03-12T01:10:06;1.90;99.90
39919;DHT22;25589;51.552;13.424;2023-03-12T01:12:32;2.70;99.90
39919;DHT22;25589;51.552;13.424;2023-03-12T01:14:58;2.30;99.90
39919;DHT22;25589;51.552;13.424;2023-03-12T01:17:23;1.70;99.90
39919;DHT22;25589;51.552;13.424;2023-03-12T01:19:49;0.70;99.90
39919;DHT22;25589;51.552;13.424;2023-03-12T01:22:14;2.60;99.90
39919;DHT22;25589;51.552;13.424;2023-03-12T01:24:40;1.70;99.90
39919;DHT22;25589;51.552;13.424;2023-03-12T01:27:06;1.60;99.90
39919;DHT22;25589;51.552;13.424;2023-03-12T01:29:31;1.40;99.90
39919;DHT22;25589;51.552;13.424;2023-03-12T01:31:57;2.00;99.90
39919;DHT22;25589;51.552;13.424;2023-03-12T01:34:23;1.50;99.90
39919;DHT22;25589;51.552;13.424;2023-03-12T01:36:48;1.50;99.90
39919;DHT22;25589;51.552;13.424;2023-03-12T01:39:14;1.50;99.90
39919;DHT22;25589;51.552;13.424;2023-03-12T01:44:06;1.60;99.90
39919;DHT22;25589;51.552;13.424;2023-03-12T01:46:37;1.50;99.90
39919;DHT22;25589;51.552;13.424;2023-03-12T01:51:47;1.40;99.90
39919;DHT22;25589;51.552;13.424;2023-03-12T01:54:20;1.60;99.90
39919;DHT22;25589;51.552;13.424;2023-03-12T01:56:47;1.60;99.90
39919;DHT22;25589;51.552;13.424;2023-03-12T01:59:20;1.90;99.90
39919;DHT22;25589;51.552;13.424;2023-03-12T02:01:47;0.80;99.90
39919;DHT22;25589;51.552;13.424;2023-03-12T02:04:15;2.30;99.90
39919;DHT22;25589;51.552;13.424;2023-03-12T02:06:58;1.60;99.90
39919;DHT22;25589;51.552;13.424;2023-03-12T02:09:26;3.00;99.90
39919;DHT22;25589;51.552;13.424;2023-03-12T02:11:51;1.50;99.90
39919;DHT22;25589;51.552;13.424;2023-03-12T02:14:19;1.80;99.90
39919;DHT22;25589;51.552;13.424;2023-03-12T02:16:45;1.70;99.90
39919;DHT22;25589;51.552;13.424;2023-03-12T02:19:18;1.60;99.90
39919;DHT22;25589;51.552;13.424;2023-03-12T02:21:47;1.60;99.90
39919;DHT22;25589;51.552;13.424;2023-03-12T02:24:34;0.40;99.90
39919;DHT22;25589;51.552;13.424;2023-03-12T02:29:31;2.80;99.90
39919;DHT22;25589;51.552;13.424;2023-03-12T02:31:59;2.90;99.90
39919;DHT22;25589;51.552;13.424;2023-03-12T02:34:26;1.00;99.90
39919;DHT22;25589;51.552;13.424;2023-03-12T02:36:51;1.50;99.90
39919;DHT22;25589;51.552;13.424;2023-03-12T02:39:17;2.10;99.90
39919;DHT22;25589;51.552;13.424;2023-03-12T02:41:45;1.50;99.90
39919;DHT22;25589;51.552;13.424;2023-03-12T02:44:19;2.40;99.90
39919;DHT22;25589;51.552;13.424;2023-03-12T02:46:51;1.20;99.90
39919;DHT22;25589;51.552;13.424;2023-03-12T02:49:20;0.50;99.90
39919;DHT22;25589;51.552;13.424;2023-03-12T02:51:47;1.50;99.90
39919;DHT22;25589;51.552;13.424;2023-03-12T02:54:14;1.50;99.90
39919;DHT22;25589;51.552;13.424;2023-03-12T02:56:40;2.10;99.90
39919;DHT22;25589;51.552;13.424;2023-03-12T02:59:06;1.10;99.90
39919;DHT22;25589;51.552;13.424;2023-03-12T03:01:36;1.50;99.90
39919;DHT22;25589;51.552;13.424;2023-03-12T03:04:03;1.50;99.90
39919;DHT22;25589;51.552;13.424;2023-03-12T03:06:29;2.60;99.90
39919;DHT22;25589;51.552;13.424;2023-03-12T03:08:55;1.10;99.90
39919;DHT22;25589;51.552;13.424;2023-03-12T03:11:21;1.60;99.90
39919;DHT22;25589;51.552;13.424;2023-03-12T03:13:53;2.80;99.90
39919;DHT22;25589;51.552;13.424;2023-03-12T03:16:20;1.60;99.90
39919;DHT22;25589;51.552;13.424;2023-03-12T03:18:46;2.20;99.90
39919;DHT22;25589;51.552;13.424;2023-03-12T03:21:13;1.60;99.90
39919;DHT22;25589;51.552;13.424;2023-03-12T03:23:43;2.10;99.90
39919;DHT22;25589;51.552;13.424;2023-03-12T03:26:09;0.50;99.90
39919;DHT22;25589;51.552;13.424;2023-03-12T03:28:35;2.60;99.90
39919;DHT22;25589;51.552;13.424;2023-03-12T03:31:00;1.40;99.90
39919;DHT22;25589;51.552;13.424;2023-03-12T03:33:30;0.90;99.90
39919;DHT22;25589;51.552;13.424;2023-03-12T03:35:57;1.90;99.90
39919;DHT22;25589;51.552;13.424;2023-03-12T03:38:28;2.50;99.90
39919;DHT22;25589;51.552;13.424;2023-03-12T03:40:54;1.50;99.90
39919;DHT22;25589;51.552;13.424;2023-03-12T03:43:21;1.50;99.90
39919;DHT22;25589;51.552;13.424;2023-03-12T03:45:47;1.30;99.90
39919;DHT22;25589;51.552;13.424;2023-03-12T03:48:14;1.40;99.90
39919;DHT22;25589;51.552;13.424;2023-03-12T03:50:40;0.80;99.90
39919;DHT22;25589;51.552;13.424;2023-03-12T03:53:08;2.00;99.90
39919;DHT22;25589;51.552;13.424;2023-03-12T03:55:38;0.80;99.90
39919;DHT22;25589;51.552;13.424;2023-03-12T03:58:05;1.00;99.90
39919;DHT22;25589;51.552;13.424;2023-03-12T04:00:31;1.40;99.90
39919;DHT22;25589;51.552;13.424;2023-03-12T04:02:57;2.10;99.90
39919;DHT22;25589;51.552;13.424;2023-03-12T04:05:23;1.50;99.90
39919;DHT22;25589;51.552;13.424;2023-03-12T04:07:52;1.40;99.90
39919;DHT22;25589;51.552;13.424;2023-03-12T04:10:21;1.40;99.90
39919;DHT22;25589;51.552;13.424;2023-03-12T04:12:47;2.40;99.90
39919;DHT22;25589;51.552;13.424;2023-03-12T04:15:13;2.70;99.90
39919;DHT22;25589;51.552;13.424;2023-03-12T04:17:39;1.80;99.90
39919;DHT22;25589;51.552;13.424;2023-03-12T04:20:05;1.80;99.90
39919;DHT22;25589;51.552;13.424;2023-03-12T04:22:33;1.10;99.90
39919;DHT22;25589;51.552;13.424;2023-03-12T04:24:58;0.10;99.90
39919;DHT22;25589;51.552;13.424;2023-03-12T04:27:24;2.10;99.90
39919;DHT22;25589;51.552;13.424;2023-03-12T04:29:49;-0.10;99.90
39919;DHT22;25589;51.552;13.424;2023-03-12T04:32:15;1.10;99.90
39919;DHT22;25589;51.552;13.424;2023-03-12T04:34:42;2.40;99.90
39919;DHT22;25589;51.552;13.424;2023-03-12T04:37:08;1.70;99.90
39919;DHT22;25589;51.552;13.424;2023-03-12T04:39:36;1.10;99.90
39919;DHT22;25589;51.552;13.424;2023-03-12T04:42:01;1.10;99.90
39919;DHT22;25589;51.552;13.424;2023-03-12T04:44:27;1.20;99.90
39919;DHT22;25589;51.552;13.424;2023-03-12T04:46:53;1.60;99.90
39919;DHT22;25589;51.552;13.424;2023-03-12T04:49:22;1.80;99.90
39919;DHT22;25589;51.552;13.424;2023-03-12T04:51:48;1.30;99.90
39919;DHT22;25589;51.552;13.424;2023-03-12T04:54:13;1.20;99.90
39919;DHT22;25589;51.552;13.424;2023-03-12T04:56:40;2.60;99.90
39919;DHT22;25589;51.552;13.424;2023-03-12T04:59:06;1.30;99.90
39919;DHT22;25589;51.552;13.424;2023-03-12T05:01:35;2.20;99.90
39919;DHT22;25589;51.552;13.424;2023-03-12T05:04:06;2.30;99.90
39919;DHT22;25589;51.552;13.424;2023-03-12T05:06:32;2.30;99.90
39919;DHT22;25589;51.552;13.424;2023-03-12T05:08:58;2.40;99.90
39919;DHT22;25589;51.552;13.424;2023-03-12T05:11:24;2.30;99.90
39919;DHT22;25589;51.552;13.424;2023-03-12T05:13:50;1.80;99.90
39919;DHT22;25589;51.552;13.424;2023-03-12T05:16:16;0.50;99.90
39919;DHT22;25589;51.552;13.424;2023-03-12T05:18:42;0.90;99.90
39919;DHT22;25589;51.552;13.424;2023-03-12T05:21:14;0.30;99.90
39919;DHT22;25589;51.552;13.424;2023-03-12T05:23:41;1.90;99.90
39919;DHT22;25589;51.552;13.424;2023-03-12T05:26:16;1.10;99.90
39919;DHT22;25589;51.552;13.424;2023-03-12T05:28:42;0.90;99.90
39919;DHT22;25589;51.552;13.424;2023-03-12T05:31:10;-0.10;99.90
39919;DHT22;25589;51.552;13.424;2023-03-12T05:33:36;1.20;99.90
39919;DHT22;25589;51.552;13.424;2023-03-12T05:36:02;1.20;99.90
39919;DHT22;25589;51.552;13.424;2023-03-12T05:38:28;2.00;99.90
39919;DHT22;25589;51.552;13.424;2023-03-12T05:40:56;2.50;99.90
39919;DHT22;25589;51.552;13.424;2023-03-12T05:43:25;1.70;99.90
39919;DHT22;25589;51.552;13.424;2023-03-12T05:45:52;0.10;99.90
39919;DHT22;25589;51.552;13.424;2023-03-12T05:48:17;2.10;99.90
39919;DHT22;25589;51.552;13.424;2023-03-12T05:50:43;2.50;99.90
39919;DHT22;25589;51.552;13.424;2023-03-12T05:53:09;1.60;99.90
39919;DHT22;25589;51.552;13.424;2023-03-12T05:55:36;1.60;99.90
39919;DHT22;25589;51.552;13.424;2023-03-12T05:58:04;1.80;99.90
39919;DHT22;25589;51.552;13.424;2023-03-12T06:00:30;1.40;99.90
39919;DHT22;25589;51.552;13.424;2023-03-12T06:05:24;2.40;99.90
39919;DHT22;25589;51.552;13.424;2023-03-12T06:07:50;1.30;99.90
39919;DHT22;25589;51.552;13.424;2023-03-12T06:10:15;1.00;99.90
39919;DHT22;25589;51.552;13.424;2023-03-12T06:12:42;0.00;99.90
39919;DHT22;25589;51.552;13.424;2023-03-12T06:17:34;1.60;99.90
39919;DHT22;25589;51.552;13.424;2023-03-12T06:20:00;1.90;99.90
39919;DHT22;25589;51.552;13.424;2023-03-12T06:22:26;1.30;99.90
39919;DHT22;25589;51.552;13.424;2023-03-12T06:24:53;1.40;99.90
39919;DHT22;25589;51.552;13.424;2023-03-12T06:27:19;1.90;99.90
39919;DHT22;25589;51.552;13.424;2023-03-12T06:29:45;0.80;99.90
39919;DHT22;25589;51.552;13.424;2023-03-12T06:32:11;1.50;99.90
39919;DHT22;25589;51.552;13.424;2023-03-12T06:34:37;1.50;99.90
39919;DHT22;25589;51.552;13.424;2023-03-12T06:37:03;1.40;99.90
39919;DHT22;25589;51.552;13.424;2023-03-12T06:39:28;1.60;99.90
39919;DHT22;25589;51.552;13.424;2023-03-12T06:41:54;2.70;99.90
39919;DHT22;25589;51.552;13.424;2023-03-12T06:44:20;1.60;99.90
39919;DHT22;25589;51.552;13.424;2023-03-12T06:46:46;0.50;99.90
39919;DHT22;25589;51.552;13.424;2023-03-12T06:49:11;2.60;99.90
39919;DHT22;25589;51.552;13.424;2023-03-12T06:51:37;1.70;99.90
39919;DHT22;25589;51.552;13.424;2023-03-12T06:54:03;3.10;99.90
39919;DHT22;25589;51.552;13.424;2023-03-12T06:56:29;1.20;99.90
39919;DHT22;25589;51.552;13.424;2023-03-12T07:01:22;1.90;99.90
39919;DHT22;25589;51.552;13.424;2023-03-12T07:03:47;1.90;99.90
39919;DHT22;25589;51.552;13.424;2023-03-12T07:06:15;2.00;99.90
39919;DHT22;25589;51.552;13.424;2023-03-12T07:08:41;2.40;99.90
39919;DHT22;25589;51.552;13.424;2023-03-12T07:11:07;0.60;99.90
39919;DHT22;25589;51.552;13.424;2023-03-12T07:13:33;3.30;99.90
39919;DHT22;25589;51.552;13.424;2023-03-12T07:15:58;1.40;99.90
39919;DHT22;25589;51.552;13.424;2023-03-12T07:20:51;1.60;99.90
39919;DHT22;25589;51.552;13.424;2023-03-12T07:23:17;2.40;99.90
39919;DHT22;25589;51.552;13.424;2023-03-12T07:25:43;2.50;99.90
39919;DHT22;25589;51.552;13.424;2023-03-12T07:28:09;3.40;99.90
39919;DHT22;25589;51.552;13.424;2023-03-12T07:30:35;2.10;99.90
39919;DHT22;25589;51.552;13.424;2023-03-12T07:33:05;2.70;99.90
39919;DHT22;25589;51.552;13.424;2023-03-12T07:35:31;2.70;99.90
39919;DHT22;25589;51.552;13.424;2023-03-12T07:37:58;2.70;99.90
39919;DHT22;25589;51.552;13.424;2023-03-12T07:40:24;2.70;99.90
39919;DHT22;25589;51.552;13.424;2023-03-12T07:42:50;2.70;99.90
39919;DHT22;25589;51.552;13.424;2023-03-12T07:45:16;2.80;99.90
39919;DHT22;25589;51.552;13.424;2023-03-12T07:47:42;4.00;99.90
39919;DHT22;25589;51.552;13.424;2023-03-12T07:50:08;3.00;99.90
39919;DHT22;25589;51.552;13.424;2023-03-12T07:52:33;3.00;99.90
39919;DHT22;25589;51.552;13.424;2023-03-12T07:54:59;3.20;99.90
39919;DHT22;25589;51.552;13.424;2023-03-12T07:57:25;3.30;99.90
39919;DHT22;25589;51.552;13.424;2023-03-12T07:59:50;3.30;99.90
39919;DHT22;25589;51.552;13.424;2023-03-12T08:02:16;3.70;99.90
39919;DHT22;25589;51.552;13.424;2023-03-12T08:04:42;2.60;99.90
39919;DHT22;25589;51.552;13.424;2023-03-12T08:07:07;3.40;99.90
39919;DHT22;25589;51.552;13.424;2023-03-12T08:09:33;4.00;99.90
39919;DHT22;25589;51.552;13.424;2023-03-12T08:11:59;3.50;99.90
39919;DHT22;25589;51.552;13.424;2023-03-12T08:14:25;3.80;99.90
39919;DHT22;25589;51.552;13.424;2023-03-12T08:16:56;3.90;99.90
39919;DHT22;25589;51.552;13.424;2023-03-12T08:19:22;4.50;99.90
39919;DHT22;25589;51.552;13.424;2023-03-12T08:21:47;4.10;99.90
39919;DHT22;25589;51.552;13.424;2023-03-12T08:24:13;3.70;99.90
39919;DHT22;25589;51.552;13.424;2023-03-12T08:26:38;3.70;99.90
39919;DHT22;25589;51.552;13.424;2023-03-12T08:29:04;5.30;99.90
39919;DHT22;25589;51.552;13.424;2023-03-12T08:31:29;4.40;99.90
39919;DHT22;25589;51.552;13.424;2023-03-12T08:33:55;5.30;99.90
39919;DHT22;25589;51.552;13.424;2023-03-12T08:36:21;4.60;99.90
39919;DHT22;25589;51.552;13.424;2023-03-12T08:38:46;4.60;99.90
39919;DHT22;25589;51.552;13.424;2023-03-12T08:41:12;4.50;99.90
39919;DHT22;25589;51.552;13.424;2023-03-12T08:43:37;4.30;99.90
39919;DHT22;25589;51.552;13.424;2023-03-12T08:46:03;4.90;99.90
39919;DHT22;25589;51.552;13.424;2023-03-12T08:48:30;4.70;99.90
39919;DHT22;25589;51.552;13.424;2023-03-12T08:50:58;4.90;99.90
39919;DHT22;25589;51.552;13.424;2023-03-12T08:53:25;4.80;99.90
39919;DHT22;25589;51.552;13.424;2023-03-12T08:55:54;4.90;99.90
39919;DHT22;25589;51.552;13.424;2023-03-12T08:58:21;5.70;99.90
39919;DHT22;25589;51.552;13.424;2023-03-12T09:00:47;4.40;99.90
39919;DHT22;25589;51.552;13.424;2023-03-12T09:03:13;4.20;99.90
39919;DHT22;25589;51.552;13.424;2023-03-12T09:05:40;4.90;99.90
39919;DHT22;25589;51.552;13.424;2023-03-12T09:08:07;4.90;99.90
39919;DHT22;25589;51.552;13.424;2023-03-12T09:10:32;5.00;99.90
39919;DHT22;25589;51.552;13.424;2023-03-12T09:12:59;5.00;99.90
39919;DHT22;25589;51.552;13.424;2023-03-12T09:15:24;5.10;99.90
39919;DHT22;25589;51.552;13.424;2023-03-12T09:17:50;6.10;99.90
39919;DHT22;25589;51.552;13.424;2023-03-12T09:20:16;5.40;99.90
39919;DHT22;25589;51.552;13.424;2023-03-12T09:22:42;6.40;99.90
39919;DHT22;25589;51.552;13.424;2023-03-12T09:25:09;6.40;99.90
39919;DHT22;25589;51.552;13.424;2023-03-12T09:27:39;4.40;99.90
39919;DHT22;25589;51.552;13.424;2023-03-12T09:30:07;5.50;99.90
39919;DHT22;25589;51.552;13.424;2023-03-12T09:32:33;5.00;99.90
39919;DHT22;25589;51.552;13.424;2023-03-12T09:34:59;5.80;99.90
39919;DHT22;25589;51.552;13.424;2023-03-12T09:37:25;7.00;99.90
39919;DHT22;25589;51.552;13.424;2023-03-12T09:39:51;5.70;99.90
39919;DHT22;25589;51.552;13.424;2023-03-12T09:42:24;5.90;99.90
39919;DHT22;25589;51.552;13.424;2023-03-12T09:44:51;7.10;99.90
39919;DHT22;25589;51.552;13.424;2023-03-12T09:50:00;7.30;99.90
39919;DHT22;25589;51.552;13.424;2023-03-12T09:52:31;7.70;99.90
39919;DHT22;25589;51.552;13.424;2023-03-12T09:55:12;6.30;99.90
39919;DHT22;25589;51.552;13.424;2023-03-12T09:57:42;6.40;99.90
39919;DHT22;25589;51.552;13.424;2023-03-12T10:00:13;6.60;99.90
39919;DHT22;25589;51.552;13.424;2023-03-12T10:05:44;6.80;99.90
39919;DHT22;25589;51.552;13.424;2023-03-12T10:08:19;6.80;99.90
39919;DHT22;25589;51.552;13.424;2023-03-12T10:10:57;5.90;99.90
39919;DHT22;25589;51.552;13.424;2023-03-12T10:16:15;7.10;99.90
39919;DHT22;25589;51.552;13.424;2023-03-12T10:22:06;7.20;99.90
39919;DHT22;25589;51.552;13.424;2023-03-12T10:27:15;7.50;99.90
39919;DHT22;25589;51.552;13.424;2023-03-12T10:29:44;8.20;99.90
39919;DHT22;25589;51.552;13.424;2023-03-12T10:32:18;8.00;99.90
39919;DHT22;25589;51.552;13.424;2023-03-12T10:34:49;7.50;99.90
39919;DHT22;25589;51.552;13.424;2023-03-12T10:37:22;7.50;99.90
39919;DHT22;25589;51.552;13.424;2023-03-12T10:39:50;7.40;99.90
39919;DHT22;25589;51.552;13.424;2023-03-12T10:42:19;7.40;99.90
39919;DHT22;25589;51.552;13.424;2023-03-12T10:44:50;7.40;99.90
39919;DHT22;25589;51.552;13.424;2023-03-12T10:47:35;8.10;99.30
39919;DHT22;25589;51.552;13.424;2023-03-12T10:50:16;7.50;99.30
39919;DHT22;25589;51.552;13.424;2023-03-12T10:52:43;7.50;98.50
39919;DHT22;25589;51.552;13.424;2023-03-12T10:57:46;8.00;98.10
39919;DHT22;25589;51.552;13.424;2023-03-12T11:02:43;8.00;99.60
39919;DHT22;25589;51.552;13.424;2023-03-12T11:05:21;7.50;98.30
39919;DHT22;25589;51.552;13.424;2023-03-12T11:07:47;8.10;98.50
39919;DHT22;25589;51.552;13.424;2023-03-12T11:10:16;8.70;98.80
39919;DHT22;25589;51.552;13.424;2023-03-12T11:12:57;7.80;97.80
39919;DHT22;25589;51.552;13.424;2023-03-12T11:15:40;7.80;98.30
39919;DHT22;25589;51.552;13.424;2023-03-12T11:18:30;7.80;97.70
39919;DHT22;25589;51.552;13.424;2023-03-12T11:23:36;8.10;97.90
39919;DHT22;25589;51.552;13.424;2023-03-12T11:26:51;7.80;97.70
39919;DHT22;25589;51.552;13.424;2023-03-12T11:28:58;7.10;97.30
39919;DHT22;25589;51.552;13.424;2023-03-12T11:31:32;7.40;96.00
39919;DHT22;25589;51.552;13.424;2023-03-12T11:34:04;8.30;95.50
39919;DHT22;25589;51.552;13.424;2023-03-12T11:36:38;7.10;94.70
39919;DHT22;25589;51.552;13.424;2023-03-12T11:42:42;8.40;94.30
39919;DHT22;25589;51.552;13.424;2023-03-12T11:45:50;8.70;94.40
39919;DHT22;25589;51.552;13.424;2023-03-12T11:56:51;7.30;90.10
39919;DHT22;25589;51.552;13.424;2023-03-12T11:59:34;8.60;93.00
39919;DHT22;25589;51.552;13.424;2023-03-12T12:04:59;8.90;92.20
39919;DHT22;25589;51.552;13.424;2023-03-12T12:13:49;10.50;91.80
39919;DHT22;25589;51.552;13.424;2023-03-12T12:19:21;8.60;90.20
39919;DHT22;25589;51.552;13.424;2023-03-12T12:24:40;8.50;87.00
39919;DHT22;25589;51.552;13.424;2023-03-12T12:27:27;8.50;89.50
39919;DHT22;25589;51.552;13.424;2023-03-12T12:30:45;8.50;90.60
39919;DHT22;25589;51.552;13.424;2023-03-12T12:35:31;9.20;90.50
39919;DHT22;25589;51.552;13.424;2023-03-12T12:38:06;8.10;91.10
39919;DHT22;25589;51.552;13.424;2023-03-12T12:43:18;8.50;91.20
39919;DHT22;25589;51.552;13.424;2023-03-12T12:45:48;8.70;91.20
39919;DHT22;25589;51.552;13.424;2023-03-12T12:48:21;8.00;91.10
39919;DHT22;25589;51.552;13.424;2023-03-12T12:50:48;8.40;92.00
39919;DHT22;25589;51.552;13.424;2023-03-12T12:53:23;8.20;91.80
39919;DHT22;25589;51.552;13.424;2023-03-12T12:56:14;8.80;92.60
39919;DHT22;25589;51.552;13.424;2023-03-12T12:58:56;8.20;92.50
39919;DHT22;25589;51.552;13.424;2023-03-12T13:01:28;7.90;92.50
39919;DHT22;25589;51.552;13.424;2023-03-12T13:04:00;8.20;92.00
39919;DHT22;25589;51.552;13.424;2023-03-12T13:08:59;7.90;92.20
39919;DHT22;25589;51.552;13.424;2023-03-12T13:11:40;8.10;93.40
39919;DHT22;25589;51.552;13.424;2023-03-12T13:14:14;7.80;92.90
39919;DHT22;25589;51.552;13.424;2023-03-12T13:16:41;7.90;93.50
39919;DHT22;25589;51.552;13.424;2023-03-12T13:21:41;8.00;93.00
39919;DHT22;25589;51.552;13.424;2023-03-12T13:27:07;8.00;92.80
39919;DHT22;25589;51.552;13.424;2023-03-12T13:29:39;7.70;92.60
39919;DHT22;25589;51.552;13.424;2023-03-12T13:32:19;7.30;93.00
39919;DHT22;25589;51.552;13.424;2023-03-12T13:34:56;8.80;93.80
39919;DHT22;25589;51.552;13.424;2023-03-12T13:37:46;8.60;93.90
39919;DHT22;25589;51.552;13.424;2023-03-12T13:43:10;7.70;94.00
39919;DHT22;25589;51.552;13.424;2023-03-12T13:45:59;7.90;94.10
39919;DHT22;25589;51.552;13.424;2023-03-12T13:48:26;7.90;94.00
39919;DHT22;25589;51.552;13.424;2023-03-12T13:50:54;8.90;94.70
39919;DHT22;25589;51.552;13.424;2023-03-12T13:53:24;7.90;94.80
39919;DHT22;25589;51.552;13.424;2023-03-12T13:56:11;8.10;94.70
39919;DHT22;25589;51.552;13.424;2023-03-12T13:58:41;8.00;94.70
39919;DHT22;25589;51.552;13.424;2023-03-12T14:01:17;7.50;94.90
39919;DHT22;25589;51.552;13.424;2023-03-12T14:03:49;8.00;95.10
39919;DHT22;25589;51.552;13.424;2023-03-12T14:06:20;8.00;95.40
39919;DHT22;25589;51.552;13.424;2023-03-12T14:09:13;8.00;95.10
39919;DHT22;25589;51.552;13.424;2023-03-12T14:15:03;7.90;95.00
39919;DHT22;25589;51.552;13.424;2023-03-12T14:17:32;7.90;95.20
39919;DHT22;25589;51.552;13.424;2023-03-12T14:20:01;8.00;95.30
39919;DHT22;25589;51.552;13.424;2023-03-12T14:22:32;7.30;95.10
39919;DHT22;25589;51.552;13.424;2023-03-12T14:25:05;7.40;95.30
39919;DHT22;25589;51.552;13.424;2023-03-12T14:27:36;8.20;95.70
39919;DHT22;25589;51.552;13.424;2023-03-12T14:30:21;7.30;95.40
39919;DHT22;25589;51.552;13.424;2023-03-12T14:32:51;9.20;95.90
39919;DHT22;25589;51.552;13.424;2023-03-12T14:35:24;8.90;96.10
39919;DHT22;25589;51.552;13.424;2023-03-12T14:40:56;8.40;96.30
39919;DHT22;25589;51.552;13.424;2023-03-12T14:43:31;7.50;96.60
39919;DHT22;25589;51.552;13.424;2023-03-12T14:46:04;7.90;96.50
39919;DHT22;25589;51.552;13.424;2023-03-12T14:48:32;7.80;96.80
39919;DHT22;25589;51.552;13.424;2023-03-12T14:51:00;8.30;97.90
39919;DHT22;25589;51.552;13.424;2023-03-12T14:53:29;7.50;99.20
39919;DHT22;25589;51.552;13.424;2023-03-12T14:58:24;7.20;99.90
39919;DHT22;25589;51.552;13.424;2023-03-12T15:01:04;7.30;99.90
39919;DHT22;25589;51.552;13.424;2023-03-12T15:05:57;7.10;99.90
39919;DHT22;25589;51.552;13.424;2023-03-12T15:08:23;7.10;99.90
39919;DHT22;25589;51.552;13.424;2023-03-12T15:10:54;7.10;99.90
39919;DHT22;25589;51.552;13.424;2023-03-12T15:13:21;7.90;99.90
39919;DHT22;25589;51.552;13.424;2023-03-12T15:15:53;7.60;99.90
39919;DHT22;25589;51.552;13.424;2023-03-12T15:18:30;7.20;99.90
39919;DHT22;25589;51.552;13.424;2023-03-12T15:20:58;7.10;99.90
39919;DHT22;25589;51.552;13.424;2023-03-12T15:23:28;7.10;99.90
39919;DHT22;25589;51.552;13.424;2023-03-12T15:26:25;7.10;99.90
39919;DHT22;25589;51.552;13.424;2023-03-12T15:29:15;7.00;99.90
39919;DHT22;25589;51.552;13.424;2023-03-12T15:31:46;7.00;99.90
39919;DHT22;25589;51.552;13.424;2023-03-12T15:34:25;6.90;99.90
39919;DHT22;25589;51.552;13.424;2023-03-12T15:36:51;6.80;99.90
39919;DHT22;25589;51.552;13.424;2023-03-12T15:39:29;6.80;99.90
39919;DHT22;25589;51.552;13.424;2023-03-12T15:41:59;8.30;99.90
39919;DHT22;25589;51.552;13.424;2023-03-12T15:44:30;7.60;99.90
39919;DHT22;25589;51.552;13.424;2023-03-12T15:47:09;6.80;99.90
39919;DHT22;25589;51.552;13.424;2023-03-12T15:49:37;6.80;99.90
39919;DHT22;25589;51.552;13.424;2023-03-12T15:57:50;6.00;99.90
39919;DHT22;25589;51.552;13.424;2023-03-12T16:02:55;5.70;99.90
39919;DHT22;25589;51.552;13.424;2023-03-12T16:05:39;6.60;99.90
39919;DHT22;25589;51.552;13.424;2023-03-12T16:08:18;6.60;99.90
39919;DHT22;25589;51.552;13.424;2023-03-12T16:10:45;7.30;99.90
39919;DHT22;25589;51.552;13.424;2023-03-12T16:13:16;6.00;99.90
39919;DHT22;25589;51.552;13.424;2023-03-12T16:15:42;7.70;99.90
39919;DHT22;25589;51.552;13.424;2023-03-12T16:18:17;6.90;99.90
39919;DHT22;25589;51.552;13.424;2023-03-12T16:20:43;6.60;99.90
39919;DHT22;25589;51.552;13.424;2023-03-12T16:23:08;6.50;99.90
39919;DHT22;25589;51.552;13.424;2023-03-12T16:25:34;7.60;99.90
39919;DHT22;25589;51.552;13.424;2023-03-12T16:28:03;6.40;99.90
39919;DHT22;25589;51.552;13.424;2023-03-12T16:30:32;6.40;99.90
39919;DHT22;25589;51.552;13.424;2023-03-12T16:32:59;7.00;99.90
39919;DHT22;25589;51.552;13.424;2023-03-12T16:35:25;7.50;99.90
39919;DHT22;25589;51.552;13.424;2023-03-12T16:37:53;5.80;99.90
39919;DHT22;25589;51.552;13.424;2023-03-12T16:40:19;7.10;99.90
39919;DHT22;25589;51.552;13.424;2023-03-12T16:45:15;6.40;99.90
39919;DHT22;25589;51.552;13.424;2023-03-12T16:47:41;6.40;99.90
39919;DHT22;25589;51.552;13.424;2023-03-12T16:50:18;6.40;99.90
39919;DHT22;25589;51.552;13.424;2023-03-12T16:52:45;6.40;99.90
39919;DHT22;25589;51.552;13.424;2023-03-12T16:55:16;6.90;99.90
39919;DHT22;25589;51.552;13.424;2023-03-12T16:57:59;6.30;99.90
39919;DHT22;25589;51.552;13.424;2023-03-12T17:02:53;6.20;99.90
39919;DHT22;25589;51.552;13.424;2023-03-12T17:05:26;5.70;99.90
39919;DHT22;25589;51.552;13.424;2023-03-12T17:07:53;6.20;99.90
39919;DHT22;25589;51.552;13.424;2023-03-12T17:10:19;6.20;99.90
39919;DHT22;25589;51.552;13.424;2023-03-12T17:12:45;5.70;99.90
39919;DHT22;25589;51.552;13.424;2023-03-12T17:15:26;6.60;99.90
39919;DHT22;25589;51.552;13.424;2023-03-12T17:17:53;6.20;99.90
39919;DHT22;25589;51.552;13.424;2023-03-12T17:20:23;5.20;99.90
39919;DHT22;25589;51.552;13.424;2023-03-12T17:22:49;6.40;99.90
39919;DHT22;25589;51.552;13.424;2023-03-12T17:27:46;6.30;99.90
39919;DHT22;25589;51.552;13.424;2023-03-12T17:30:12;6.30;99.90
39919;DHT22;25589;51.552;13.424;2023-03-12T17:32:37;7.60;99.90
39919;DHT22;25589;51.552;13.424;2023-03-12T17:35:03;6.30;99.90
39919;DHT22;25589;51.552;13.424;2023-03-12T17:37:32;6.60;99.90